createdAt,value
2022-11-07T00:05:42.162Z,10.30
2022-11-07T00:11:35.649Z,10.10
2022-11-07T00:17:28.560Z,10.20
2022-11-07T00:23:23.750Z,10.30
2022-11-07T00:29:18.649Z,10.20
2022-11-07T00:35:12.015Z,10.30
2022-11-07T00:41:07.732Z,10.50
2022-11-07T00:47:01.060Z,10.60
2022-11-07T00:52:54.528Z,10.60
2022-11-07T00:58:49.448Z,10.70
2022-11-07T01:05:01.229Z,10.60
2022-11-07T01:10:54.894Z,10.70
2022-11-07T01:16:49.577Z,10.80
2022-11-07T01:22:42.599Z,10.80
2022-11-07T01:28:38.105Z,10.90
2022-11-07T01:34:32.780Z,10.90
2022-11-07T01:40:26.232Z,10.90
2022-11-07T01:46:20.332Z,10.90
2022-11-07T01:52:18.529Z,10.90
2022-11-07T01:58:12.008Z,10.90
2022-11-07T02:04:06.854Z,11.00
2022-11-07T02:10:02.791Z,11.10
2022-11-07T02:15:56.456Z,11.10
2022-11-07T02:21:55.641Z,11.10
2022-11-07T02:27:53.958Z,11.10
2022-11-07T02:33:47.252Z,11.20
2022-11-07T02:39:40.586Z,11.30
2022-11-07T02:45:38.737Z,11.30
2022-11-07T02:51:31.765Z,11.30
2022-11-07T02:57:25.050Z,11.30
2022-11-07T03:03:19.300Z,11.40
2022-11-07T03:09:12.616Z,11.40
2022-11-07T03:15:06.486Z,11.40
2022-11-07T03:21:01.199Z,11.40
2022-11-07T03:26:54.598Z,11.30
2022-11-07T03:32:48.751Z,11.40
2022-11-07T03:38:43.449Z,11.40
2022-11-07T03:44:36.766Z,11.40
2022-11-07T03:50:30.057Z,11.40
2022-11-07T03:56:24.716Z,11.50
2022-11-07T04:02:18.197Z,11.60
2022-11-07T04:08:11.302Z,11.60
2022-11-07T04:14:22.605Z,11.60
2022-11-07T04:20:15.529Z,11.70
2022-11-07T04:26:26.418Z,11.70
2022-11-07T04:32:21.025Z,11.70
2022-11-07T04:38:14.517Z,11.70
2022-11-07T04:44:07.884Z,11.70
2022-11-07T04:50:02.688Z,11.70
2022-11-07T04:55:55.645Z,11.60
2022-11-07T05:01:49.058Z,11.80
2022-11-07T05:07:44.352Z,11.80
2022-11-07T05:13:37.718Z,11.90
2022-11-07T05:19:30.792Z,11.90
2022-11-07T05:25:26.537Z,11.80
2022-11-07T05:31:26.194Z,11.80
2022-11-07T05:37:39.979Z,11.80
2022-11-07T05:43:34.833Z,11.70
2022-11-07T05:49:28.151Z,11.70
2022-11-07T05:55:27.975Z,11.70
2022-11-07T06:01:23.322Z,11.60
2022-11-07T06:07:16.777Z,11.60
2022-11-07T06:13:13.692Z,11.60
2022-11-07T06:19:08.636Z,11.50
2022-11-07T06:25:01.942Z,11.60
2022-11-07T06:30:55.281Z,11.60
2022-11-07T06:37:01.516Z,11.60
2022-11-07T06:42:56.783Z,11.60
2022-11-07T06:48:50.702Z,11.60
2022-11-07T06:54:45.597Z,11.60
2022-11-07T07:00:39.006Z,11.50
2022-11-07T07:06:32.594Z,11.60
2022-11-07T07:12:27.881Z,11.60
2022-11-07T07:18:21.925Z,11.60
2022-11-07T07:24:15.195Z,11.60
2022-11-07T07:30:11.627Z,11.60
2022-11-07T07:36:05.498Z,11.70
2022-11-07T07:41:58.581Z,11.70
2022-11-07T07:47:53.838Z,11.70
2022-11-07T07:53:47.182Z,11.80
2022-11-07T07:59:40.482Z,11.80
2022-11-07T08:05:35.525Z,11.80
2022-11-07T08:11:28.891Z,11.80
2022-11-07T08:17:22.175Z,11.90
2022-11-07T08:23:17.179Z,11.90
2022-11-07T08:29:10.520Z,12.10
2022-11-07T08:35:03.846Z,12.20
2022-11-07T08:40:59.206Z,12.20
2022-11-07T08:46:52.575Z,12.30
2022-11-07T08:52:45.437Z,12.30
2022-11-07T08:58:40.105Z,12.40
2022-11-07T09:04:33.437Z,12.40
2022-11-07T09:10:26.580Z,12.50
2022-11-07T09:16:21.639Z,12.50
2022-11-07T09:22:15.388Z,12.50
2022-11-07T09:28:08.333Z,12.50
2022-11-07T09:34:02.968Z,12.70
2022-11-07T09:39:56.769Z,12.70
2022-11-07T09:45:57.044Z,12.90
2022-11-07T09:51:57.597Z,12.90
2022-11-07T09:57:53.853Z,13.00
2022-11-07T10:10:07.733Z,13.30
2022-11-07T10:16:10.400Z,13.30
2022-11-07T10:22:15.124Z,13.20
2022-11-07T10:28:16.520Z,13.20
2022-11-07T10:34:16.759Z,13.20
2022-11-07T10:40:17.601Z,13.20
2022-11-07T10:46:19.357Z,13.20
2022-11-07T10:52:20.086Z,13.30
2022-11-07T10:58:20.158Z,13.30
2022-11-07T11:04:23.662Z,13.30
2022-11-07T11:10:21.883Z,13.40
2022-11-07T11:16:26.650Z,13.30
2022-11-07T11:22:24.821Z,13.30
2022-11-07T11:28:25.011Z,13.40
2022-11-07T11:34:23.958Z,13.40
2022-11-07T11:40:22.561Z,13.40
2022-11-07T11:46:23.092Z,13.40
2022-11-07T11:52:18.262Z,13.40
2022-11-07T11:58:23.504Z,13.40
2022-11-07T12:04:42.194Z,13.30
2022-11-07T12:10:41.523Z,13.30
2022-11-07T12:16:41.632Z,13.30
2022-11-07T12:22:47.502Z,13.30
2022-11-07T12:28:48.412Z,13.40
2022-11-07T12:34:59.215Z,13.40
2022-11-07T12:40:59.131Z,13.50
2022-11-07T12:46:55.256Z,13.40
2022-11-07T12:53:02.384Z,13.40
2022-11-07T12:58:56.341Z,13.50
2022-11-07T13:04:57.325Z,13.40
2022-11-07T13:10:59.233Z,13.50
2022-11-07T13:16:55.107Z,13.50
2022-11-07T13:22:49.566Z,13.50
2022-11-07T13:28:45.260Z,13.50
2022-11-07T13:34:48.193Z,13.50
2022-11-07T13:40:46.762Z,13.60
2022-11-07T13:46:50.719Z,13.70
2022-11-07T13:52:51.693Z,13.70
2022-11-07T13:58:46.101Z,13.70
2022-11-07T14:05:02.525Z,13.70
2022-11-07T14:10:55.165Z,13.50
2022-11-07T14:16:48.645Z,13.40
2022-11-07T14:22:50.040Z,13.30
2022-11-07T14:28:43.801Z,13.20
2022-11-07T14:34:43.953Z,13.10
2022-11-07T14:40:38.881Z,13.20
2022-11-07T14:46:32.586Z,13.20
2022-11-07T14:52:28.287Z,13.20
2022-11-07T14:58:24.976Z,13.30
2022-11-07T15:04:29.847Z,13.30
2022-11-07T15:10:30.730Z,13.20
2022-11-07T15:16:26.740Z,13.20
2022-11-07T15:22:29.909Z,13.30
2022-11-07T15:28:26.013Z,13.30
2022-11-07T15:34:39.274Z,13.30
2022-11-07T15:40:35.830Z,13.30
2022-11-07T15:46:35.374Z,13.30
2022-11-07T15:52:55.256Z,13.20
2022-11-07T15:58:48.883Z,13.30
2022-11-07T16:04:41.985Z,13.20
2022-11-07T16:10:36.676Z,13.30
2022-11-07T16:16:34.511Z,13.20
2022-11-07T16:22:27.886Z,13.20
2022-11-07T16:28:30.365Z,13.20
2022-11-07T16:34:23.732Z,13.20
2022-11-07T16:40:19.739Z,13.20
2022-11-07T16:46:19.508Z,13.30
2022-11-07T16:52:14.838Z,13.40
2022-11-07T16:58:20.793Z,13.40
2022-11-07T17:04:15.515Z,13.40
2022-11-07T17:10:11.804Z,13.40
2022-11-07T17:16:05.764Z,13.20
2022-11-07T17:22:01.673Z,13.30
2022-11-07T17:27:54.929Z,13.40
2022-11-07T17:33:48.764Z,13.40
2022-11-07T17:39:48.375Z,13.40
2022-11-07T17:45:42.196Z,13.40
2022-11-07T17:51:36.284Z,13.30
2022-11-07T17:57:30.985Z,13.40
2022-11-07T18:03:24.296Z,13.40
2022-11-07T18:09:17.844Z,13.50
2022-11-07T18:15:13.396Z,13.60
2022-11-07T18:21:07.061Z,13.60
2022-11-07T18:27:00.399Z,13.60
2022-11-07T18:32:55.090Z,13.50
2022-11-07T18:38:48.932Z,13.50
2022-11-07T18:44:42.460Z,13.40
2022-11-07T18:50:40.339Z,13.50
2022-11-07T18:56:33.656Z,13.50
2022-11-07T19:02:28.918Z,13.50
2022-11-07T19:08:23.783Z,13.50
2022-11-07T19:14:17.092Z,13.50
2022-11-07T19:20:11.301Z,13.50
2022-11-07T19:26:06.369Z,13.50
2022-11-07T19:31:59.735Z,13.50
2022-11-07T19:37:52.641Z,13.50
2022-11-07T19:43:50.340Z,13.50
2022-11-07T19:49:43.679Z,13.50
2022-11-07T19:55:37.542Z,13.60
2022-11-07T20:01:34.294Z,13.60
2022-11-07T20:07:27.616Z,13.70
2022-11-07T20:13:20.997Z,13.60
2022-11-07T20:19:15.914Z,13.60
2022-11-07T20:25:10.416Z,13.70
2022-11-07T20:31:08.846Z,13.60
2022-11-07T20:37:03.506Z,13.50
2022-11-07T20:42:56.908Z,13.50
2022-11-07T20:48:50.687Z,13.50
2022-11-07T20:54:45.419Z,13.50
2022-11-07T21:00:41.022Z,13.50
2022-11-07T21:06:34.877Z,13.50
2022-11-07T21:12:29.624Z,13.50
2022-11-07T21:18:22.959Z,13.60
2022-11-07T21:24:16.306Z,13.50
2022-11-07T21:30:12.801Z,13.50
2022-11-07T21:36:10.701Z,13.40
2022-11-07T21:42:12.616Z,13.60
2022-11-07T21:48:07.692Z,13.50
2022-11-07T21:54:01.601Z,13.40
2022-11-07T21:59:54.975Z,13.40
2022-11-07T22:05:49.873Z,13.30
2022-11-07T22:11:43.379Z,13.30
2022-11-07T22:17:36.693Z,13.40
2022-11-07T22:23:33.657Z,13.30
2022-11-07T22:29:26.962Z,13.20
2022-11-07T22:35:20.360Z,13.30
2022-11-07T22:41:18.226Z,13.40
2022-11-07T22:47:11.494Z,13.40
2022-11-07T22:53:05.119Z,13.30
2022-11-07T22:59:00.088Z,13.40
2022-11-07T23:04:53.393Z,13.30
2022-11-07T23:10:46.705Z,13.50
2022-11-07T23:16:44.466Z,13.40
2022-11-07T23:22:37.687Z,13.40
2022-11-07T23:28:31.124Z,13.40
2022-11-07T23:34:26.325Z,13.30
2022-11-07T23:40:19.628Z,13.40
2022-11-07T23:46:32.073Z,13.50
2022-11-07T23:52:26.718Z,13.60
2022-11-07T23:58:37.446Z,13.60
